Time;durP1;ratioP1;P1;durP2;ratioP2;P2;SDS_P1;SDS_P2;PMS_P1;PMS_P2;Temp;Humidity;BMP_temperature;BMP_pressure;BME280_temperature;BME280_humidity;BME280_pressure;Samples;Min_cycle;Max_cycle;Signal;HPM_P1;HPM_P2
2023/10/16 00:00:43;;;;;;;16.87;10.73;;;;;;;;;;5014178;28;20179;-74
2023/10/16 00:03:12;;;;;;;12.60;10.73;;;;;;;;;;5014246;28;20157;-74
2023/10/16 00:05:39;;;;;;;13.97;10.20;;;;;;;;;;5013844;28;20176;-74
2023/10/16 00:08:06;;;;;;;15.37;11.00;;;;;;;;;;5013556;28;20242;-74
2023/10/16 00:10:33;;;;;;;15.63;11.40;;;;;;;;;;5013700;28;20178;-74
2023/10/16 00:13:04;;;;;;;19.23;10.90;;;;;;;;;;5012498;28;20183;-74
2023/10/16 00:15:33;;;;;;;18.33;10.87;;;;;;;;;;5013648;28;20164;-74
2023/10/16 00:18:00;;;;;;;20.33;11.17;;;;;;;;;;5012428;28;20281;-74
2023/10/16 00:20:26;;;;;;;13.27;10.83;;;;;;;;;;5013566;28;20184;-74
2023/10/16 00:22:52;;;;;;;18.83;10.93;;;;;;;;;;5013819;28;20187;-74
2023/10/16 00:25:24;;;;;;;18.00;11.03;;;;;;;;;;5012259;28;20215;-74
2023/10/16 00:27:50;;;;;;;16.43;11.13;;;;;;;;;;5013525;28;20191;-74
2023/10/16 00:30:17;;;;;;;15.17;11.13;;;;;;;;;;5013647;28;20180;-74
2023/10/16 00:32:43;;;;;;;13.03;10.60;;;;;;;;;;5013876;28;20267;-74
2023/10/16 00:35:10;;;;;;;14.60;10.67;;;;;;;;;;5012108;28;20203;-74
2023/10/16 00:37:37;;;;;;;16.77;11.87;;;;;;;;;;5012470;28;20616;-75
2023/10/16 00:40:10;;;;;;;19.30;11.43;;;;;;;;;;5012247;28;20190;-74
2023/10/16 00:42:36;;;;;;;16.87;10.53;;;;;;;;;;5013899;28;20194;-74
2023/10/16 00:45:03;;;;;;;18.43;12.63;;;;;;;;;;5011969;28;20212;-75
2023/10/16 00:47:30;;;;;;;15.17;11.03;;;;;;;;;;5013368;28;20207;-75
2023/10/16 00:50:00;;;;;;;22.53;11.70;;;;;;;;;;5013361;28;20543;-74
2023/10/16 00:52:26;;;;;;;17.20;11.73;;;;;;;;;;5013614;28;20195;-74
2023/10/16 00:54:53;;;;;;;19.97;12.03;;;;;;;;;;5012013;28;20203;-74
2023/10/16 00:57:27;;;;;;;14.17;10.90;;;;;;;;;;5012028;28;20278;-74
2023/10/16 00:59:53;;;;;;;19.77;12.50;;;;;;;;;;5011987;28;20188;-74
2023/10/16 01:02:26;;;;;;;18.20;12.63;;;;;;;;;;5013123;28;20267;-74
2023/10/16 01:04:52;;;;;;;20.10;12.67;;;;;;;;;;5013331;28;20230;-74
2023/10/16 01:07:19;;;;;;;21.70;13.23;;;;;;;;;;5013004;28;20203;-74
2023/10/16 01:09:50;;;;;;;22.97;11.70;;;;;;;;;;5013053;28;20200;-75
2023/10/16 01:12:16;;;;;;;19.03;12.13;;;;;;;;;;5013370;28;20187;-74
2023/10/16 01:14:43;;;;;;;20.60;12.70;;;;;;;;;;5013308;28;20352;-74
2023/10/16 01:17:09;;;;;;;14.43;12.33;;;;;;;;;;5013089;28;20180;-74
2023/10/16 01:19:36;;;;;;;18.90;12.40;;;;;;;;;;5012912;28;20184;-74
2023/10/16 01:22:02;;;;;;;19.87;13.10;;;;;;;;;;5013308;28;20180;-74
2023/10/16 01:24:29;;;;;;;20.20;13.80;;;;;;;;;;5012696;28;20215;-75
2023/10/16 01:27:07;;;;;;;19.30;13.27;;;;;;;;;;5011762;28;20219;-74
2023/10/16 01:29:33;;;;;;;17.40;14.40;;;;;;;;;;5013059;28;20163;-74
2023/10/16 01:31:59;;;;;;;20.17;14.03;;;;;;;;;;5012963;28;20180;-74
2023/10/16 01:34:25;;;;;;;22.07;14.53;;;;;;;;;;5014818;28;20196;-74
2023/10/16 01:36:51;;;;;;;16.53;13.07;;;;;;;;;;5015180;28;20184;-74
2023/10/16 01:42:09;;;;;;;19.43;14.63;;;;;;;;;;5016832;28;20349;-74
2023/10/16 01:44:35;;;;;;;20.57;16.13;;;;;;;;;;5015167;28;20207;-74
2023/10/16 01:47:03;;;;;;;22.17;16.10;;;;;;;;;;5014893;28;20210;-74
2023/10/16 01:49:29;;;;;;;22.67;15.80;;;;;;;;;;5015159;28;20180;-74
2023/10/16 01:51:56;;;;;;;26.97;15.93;;;;;;;;;;5015026;28;20186;-74
2023/10/16 01:54:22;;;;;;;24.93;15.73;;;;;;;;;;5014859;28;20456;-74
2023/10/16 01:56:51;;;;;;;25.50;16.77;;;;;;;;;;5014909;28;20191;-74
2023/10/16 01:59:21;;;;;;;21.37;16.03;;;;;;;;;;5014827;28;20295;-74
2023/10/16 02:01:47;;;;;;;19.67;16.13;;;;;;;;;;5014772;28;20179;-74
2023/10/16 02:04:13;;;;;;;25.47;17.00;;;;;;;;;;5015911;28;20211;-74
2023/10/16 02:06:39;;;;;;;27.63;17.03;;;;;;;;;;5015893;28;20204;-74
2023/10/16 02:09:13;;;;;;;21.07;17.60;;;;;;;;;;5016213;28;20183;-74
2023/10/16 02:11:40;;;;;;;22.47;16.03;;;;;;;;;;5016317;28;20171;-75
2023/10/16 02:14:07;;;;;;;28.57;16.33;;;;;;;;;;5014795;28;20634;-74
2023/10/16 02:16:34;;;;;;;22.93;16.10;;;;;;;;;;5014641;28;20649;-74
2023/10/16 02:19:00;;;;;;;23.03;16.97;;;;;;;;;;5016125;28;20176;-74
2023/10/16 02:21:26;;;;;;;20.53;17.07;;;;;;;;;;5015033;28;20180;-73
2023/10/16 02:23:52;;;;;;;22.27;17.13;;;;;;;;;;5016213;28;20296;-73
2023/10/16 02:26:18;;;;;;;26.20;17.10;;;;;;;;;;5016342;28;20183;-73
2023/10/16 02:28:47;;;;;;;23.47;17.30;;;;;;;;;;5016587;28;20184;-73
2023/10/16 02:31:14;;;;;;;23.80;17.70;;;;;;;;;;5015852;28;20207;-73
2023/10/16 02:33:45;;;;;;;22.57;16.83;;;;;;;;;;5015759;28;20202;-75
2023/10/16 02:36:12;;;;;;;25.73;16.37;;;;;;;;;;5014084;28;20179;-73
2023/10/16 02:38:38;;;;;;;26.47;17.83;;;;;;;;;;5015696;28;20180;-73
2023/10/16 02:41:08;;;;;;;24.30;18.20;;;;;;;;;;5015324;28;20183;-73
2023/10/16 02:43:37;;;;;;;26.27;19.03;;;;;;;;;;5015324;28;20633;-73
2023/10/16 02:46:09;;;;;;;29.17;19.10;;;;;;;;;;5013070;28;20615;-73
2023/10/16 02:48:35;;;;;;;24.43;18.43;;;;;;;;;;5014991;28;20200;-73
2023/10/16 02:51:02;;;;;;;25.37;18.87;;;;;;;;;;5015273;28;20550;-74
2023/10/16 02:53:29;;;;;;;26.67;18.93;;;;;;;;;;5014785;28;20199;-74
2023/10/16 02:56:14;;;;;;;29.63;19.67;;;;;;;;;;5013607;28;20200;-73
2023/10/16 02:58:46;;;;;;;30.23;20.23;;;;;;;;;;5014939;28;20186;-74
2023/10/16 03:01:18;;;;;;;23.93;19.30;;;;;;;;;;5015041;28;20641;-73
2023/10/16 03:03:46;;;;;;;25.13;17.57;;;;;;;;;;5013719;28;20224;-73
2023/10/16 03:06:13;;;;;;;24.77;18.93;;;;;;;;;;5014682;28;20207;-74
2023/10/16 03:08:39;;;;;;;27.80;18.17;;;;;;;;;;5015280;28;20207;-73
2023/10/16 03:11:13;;;;;;;23.43;18.60;;;;;;;;;;5015697;28;20176;-73
2023/10/16 03:13:47;;;;;;;24.80;18.97;;;;;;;;;;5013942;28;20218;-73
2023/10/16 03:16:23;;;;;;;27.73;19.10;;;;;;;;;;5015321;28;20599;-73
2023/10/16 03:18:49;;;;;;;29.27;19.60;;;;;;;;;;5014078;28;20175;-73
2023/10/16 03:23:44;;;;;;;26.37;19.07;;;;;;;;;;5015492;28;20682;-73
2023/10/16 03:26:27;;;;;;;29.90;21.07;;;;;;;;;;5016825;28;20167;-73
2023/10/16 03:28:53;;;;;;;28.17;20.50;;;;;;;;;;5016938;28;20156;-73
2023/10/16 03:31:19;;;;;;;31.57;20.10;;;;;;;;;;5018109;28;20172;-73
2023/10/16 03:33:45;;;;;;;33.00;20.87;;;;;;;;;;5017342;28;20203;-73
2023/10/16 03:36:11;;;;;;;29.83;20.57;;;;;;;;;;5015453;28;20172;-73
2023/10/16 03:38:37;;;;;;;29.23;21.00;;;;;;;;;;5014993;28;20184;-72
2023/10/16 03:41:11;;;;;;;27.40;19.13;;;;;;;;;;5015311;28;20207;-73
2023/10/16 03:43:37;;;;;;;30.70;20.67;;;;;;;;;;5014007;28;20223;-73
2023/10/16 03:46:03;;;;;;;26.40;20.43;;;;;;;;;;5012800;28;20192;-73
2023/10/16 03:48:29;;;;;;;26.43;19.93;;;;;;;;;;5012735;28;20238;-73
2023/10/16 03:50:56;;;;;;;29.07;19.90;;;;;;;;;;5013939;28;20176;-73
2023/10/16 03:53:24;;;;;;;29.97;19.60;;;;;;;;;;5013988;28;20176;-73
2023/10/16 03:55:50;;;;;;;25.87;20.57;;;;;;;;;;5012554;28;20176;-73
2023/10/16 03:58:19;;;;;;;33.23;21.20;;;;;;;;;;5013472;28;20661;-73
2023/10/16 04:00:57;;;;;;;29.50;21.17;;;;;;;;;;5013608;28;20186;-73
2023/10/16 04:03:25;;;;;;;30.17;22.67;;;;;;;;;;5013628;28;20199;-73
2023/10/16 04:05:53;;;;;;;25.73;19.43;;;;;;;;;;5014069;28;20203;-73
2023/10/16 04:08:22;;;;;;;27.27;21.77;;;;;;;;;;5013657;28;20242;-71
2023/10/16 04:10:48;;;;;;;25.10;18.80;;;;;;;;;;5012453;28;20237;-74
2023/10/16 04:13:15;;;;;;;22.80;19.23;;;;;;;;;;5013578;28;20204;-74
2023/10/16 04:20:56;;;;;;;36.60;24.60;;;;;;;;;;5029133;23;20246;-69
2023/10/16 04:23:52;;;;;;;39.10;26.63;;;;;;;;;;5014850;28;20171;-68
2023/10/16 04:31:55;;;;;;;22.80;20.40;;;;;;;;;;5014645;28;20208;-68
2023/10/16 04:47:48;;;;;;;28.77;22.07;;;;;;;;;;5014662;28;20202;-67
2023/10/16 04:50:29;;;;;;;28.50;21.00;;;;;;;;;;5014454;28;20201;-68
2023/10/16 04:58:59;;;;;;;33.37;22.07;;;;;;;;;;5014394;28;20720;-67
2023/10/16 05:13:17;;;;;;;33.53;21.17;;;;;;;;;;5018030;28;20707;-65
2023/10/16 05:19:44;;;;;;;37.67;23.30;;;;;;;;;;5017745;28;20179;-67
2023/10/16 06:14:20;;;;;;;35.40;23.43;;;;;;;;;;5016569;28;20560;-67
2023/10/16 06:16:53;;;;;;;32.10;24.83;;;;;;;;;;5016144;28;20175;-67
2023/10/16 06:19:19;;;;;;;35.20;23.80;;;;;;;;;;5015208;28;20608;-66
2023/10/16 06:21:46;;;;;;;33.80;26.07;;;;;;;;;;5016388;28;20212;-67
2023/10/16 06:24:25;;;;;;;35.20;25.23;;;;;;;;;;5014935;28;20183;-67
2023/10/16 06:26:55;;;;;;;44.50;29.13;;;;;;;;;;5015415;28;21025;-67
2023/10/16 06:29:24;;;;;;;34.67;26.90;;;;;;;;;;5014755;28;20172;-68
2023/10/16 06:31:53;;;;;;;40.03;29.93;;;;;;;;;;5014848;28;20203;-68
2023/10/16 06:34:19;;;;;;;36.77;27.63;;;;;;;;;;5015030;28;20180;-67
2023/10/16 06:36:45;;;;;;;47.93;29.77;;;;;;;;;;5015929;28;20187;-66
2023/10/16 06:39:22;;;;;;;38.57;28.00;;;;;;;;;;5016035;28;20175;-67
2023/10/16 06:41:53;;;;;;;36.83;27.43;;;;;;;;;;5014675;28;20211;-67
2023/10/16 06:44:21;;;;;;;40.43;27.00;;;;;;;;;;5015990;28;20537;-68
2023/10/16 06:46:49;;;;;;;40.53;27.40;;;;;;;;;;5016052;28;20199;-66
2023/10/16 06:49:15;;;;;;;45.07;26.07;;;;;;;;;;5014589;28;20271;-66
2023/10/16 06:51:43;;;;;;;40.10;24.53;;;;;;;;;;5015732;28;20223;-67
2023/10/16 06:54:10;;;;;;;32.00;23.77;;;;;;;;;;5015697;28;20495;-67
2023/10/16 06:56:38;;;;;;;35.73;23.70;;;;;;;;;;5014495;28;20180;-67
2023/10/16 06:59:04;;;;;;;32.57;23.40;;;;;;;;;;5015521;28;20179;-68
2023/10/16 07:01:34;;;;;;;34.73;24.47;;;;;;;;;;5015795;28;20223;-65
2023/10/16 07:04:00;;;;;;;35.07;23.23;;;;;;;;;;5014691;28;20272;-66
2023/10/16 07:06:33;;;;;;;33.77;24.07;;;;;;;;;;5015905;28;20646;-68
2023/10/16 07:09:06;;;;;;;35.00;23.10;;;;;;;;;;5014225;28;20172;-66
2023/10/16 07:11:32;;;;;;;34.77;22.90;;;;;;;;;;5015639;28;20196;-66
2023/10/16 07:13:58;;;;;;;35.93;22.20;;;;;;;;;;5015424;28;20257;-66
2023/10/16 07:16:25;;;;;;;36.17;23.03;;;;;;;;;;5015951;28;20175;-66
2023/10/16 07:18:54;;;;;;;35.43;22.80;;;;;;;;;;5014344;28;20176;-66
2023/10/16 07:21:20;;;;;;;32.20;22.43;;;;;;;;;;5014042;28;20226;-67
2023/10/16 07:23:46;;;;;;;36.33;23.87;;;;;;;;;;5016061;28;20206;-65
2023/10/16 07:26:19;;;;;;;32.53;25.30;;;;;;;;;;5015348;28;20180;-68
2023/10/16 07:28:48;;;;;;;33.67;26.67;;;;;;;;;;5015636;28;20198;-66
2023/10/16 07:31:16;;;;;;;35.47;26.17;;;;;;;;;;5013621;28;20217;-67
2023/10/16 07:33:42;;;;;;;38.27;27.40;;;;;;;;;;5014901;28;20238;-67
2023/10/16 07:36:11;;;;;;;42.43;27.73;;;;;;;;;;5014171;28;20269;-68
2023/10/16 07:38:38;;;;;;;39.10;28.37;;;;;;;;;;5014030;28;20222;-67
2023/10/16 07:41:04;;;;;;;40.57;28.83;;;;;;;;;;5015186;28;20191;-67
2023/10/16 07:43:34;;;;;;;42.53;30.33;;;;;;;;;;5013948;28;20187;-67
2023/10/16 07:48:40;;;;;;;41.57;31.63;;;;;;;;;;5015237;28;20196;-67
2023/10/16 07:51:09;;;;;;;49.47;32.63;;;;;;;;;;5015641;28;20564;-68
2023/10/16 07:53:35;;;;;;;43.77;32.97;;;;;;;;;;5014548;28;20176;-66
2023/10/16 07:56:19;;;;;;;47.07;32.70;;;;;;;;;;5015417;28;20548;-65
2023/10/16 07:58:48;;;;;;;45.83;32.63;;;;;;;;;;5013995;28;20183;-65
2023/10/16 08:03:45;;;;;;;43.20;32.20;;;;;;;;;;5014850;28;20196;-66
2023/10/16 08:06:17;;;;;;;47.10;33.17;;;;;;;;;;5014727;28;20163;-67
2023/10/16 08:08:48;;;;;;;45.77;32.57;;;;;;;;;;5014707;28;20677;-66
2023/10/16 08:11:21;;;;;;;47.40;33.90;;;;;;;;;;5014919;28;20623;-68
2023/10/16 08:13:53;;;;;;;48.77;33.70;;;;;;;;;;5014602;28;20645;-67
2023/10/16 08:16:24;;;;;;;43.80;33.80;;;;;;;;;;5013514;28;20632;-67
2023/10/16 08:18:51;;;;;;;46.33;34.90;;;;;;;;;;5013536;28;20226;-67
2023/10/16 08:21:26;;;;;;;44.20;34.33;;;;;;;;;;5014440;28;20701;-67
2023/10/16 08:23:53;;;;;;;49.00;35.87;;;;;;;;;;5014783;28;20174;-68
2023/10/16 08:26:28;;;;;;;51.90;35.90;;;;;;;;;;5013297;28;20176;-68
2023/10/16 08:28:55;;;;;;;50.37;36.83;;;;;;;;;;5014903;28;20186;-67
2023/10/16 08:31:24;;;;;;;49.43;40.53;;;;;;;;;;5013220;28;20219;-66
2023/10/16 08:33:51;;;;;;;47.43;37.70;;;;;;;;;;5012839;28;20701;-67
2023/10/16 08:36:20;;;;;;;42.07;34.80;;;;;;;;;;5014213;28;20180;-66
2023/10/16 08:38:52;;;;;;;47.23;34.00;;;;;;;;;;5012974;28;20661;-68
2023/10/16 08:41:30;;;;;;;52.33;40.77;;;;;;;;;;5014625;28;20207;-68
2023/10/16 08:44:03;;;;;;;42.40;32.60;;;;;;;;;;5014746;28;20221;-68
2023/10/16 08:46:30;;;;;;;44.77;34.07;;;;;;;;;;5018131;28;20638;-69
2023/10/16 08:48:57;;;;;;;52.57;40.90;;;;;;;;;;5019289;28;20179;-66
2023/10/16 08:51:23;;;;;;;51.90;38.00;;;;;;;;;;5017794;28;20187;-69
2023/10/16 08:53:58;;;;;;;67.37;41.03;;;;;;;;;;5015932;28;20541;-68
2023/10/16 08:56:25;;;;;;;64.07;41.67;;;;;;;;;;5017081;28;20164;-68
2023/10/16 08:58:55;;;;;;;60.33;39.37;;;;;;;;;;5015337;28;20186;-68
2023/10/16 09:01:23;;;;;;;62.90;38.57;;;;;;;;;;5016853;28;20278;-67
2023/10/16 09:03:54;;;;;;;59.13;38.80;;;;;;;;;;5015497;28;20186;-66
2023/10/16 09:06:23;;;;;;;65.00;43.03;;;;;;;;;;5015686;28;20251;-67
2023/10/16 09:08:50;;;;;;;73.47;43.93;;;;;;;;;;5016904;28;20221;-67
2023/10/16 09:11:16;;;;;;;85.77;50.63;;;;;;;;;;5015115;28;20290;-68
2023/10/16 09:13:52;;;;;;;91.80;53.97;;;;;;;;;;5015824;28;20183;-68
2023/10/16 09:16:30;;;;;;;98.83;60.47;;;;;;;;;;5017437;28;20646;-66
2023/10/16 09:18:58;;;;;;;78.77;49.40;;;;;;;;;;5018555;28;20167;-68
2023/10/16 09:21:28;;;;;;;84.07;51.63;;;;;;;;;;5017664;28;20223;-65
2023/10/16 09:23:58;;;;;;;100.87;58.00;;;;;;;;;;5017300;28;20175;-67
2023/10/16 09:26:25;;;;;;;98.83;56.70;;;;;;;;;;5018260;28;20160;-67
2023/10/16 09:28:55;;;;;;;98.67;63.50;;;;;;;;;;5018122;28;20203;-68
2023/10/16 09:31:21;;;;;;;92.10;59.00;;;;;;;;;;5019328;28;20232;-66
2023/10/16 09:33:50;;;;;;;93.40;58.37;;;;;;;;;;5017888;28;20646;-68
2023/10/16 09:36:23;;;;;;;103.27;60.40;;;;;;;;;;5019056;28;20210;-68
2023/10/16 09:38:52;;;;;;;81.33;49.17;;;;;;;;;;5017632;28;20626;-67
2023/10/16 09:46:52;;;;;;;86.93;50.70;;;;;;;;;;5016065;28;20198;-68
2023/10/16 09:49:21;;;;;;;82.93;48.73;;;;;;;;;;5000737;28;20180;-68
2023/10/16 09:51:47;;;;;;;82.13;48.57;;;;;;;;;;5015790;28;20199;-68
2023/10/16 09:54:14;;;;;;;89.53;54.20;;;;;;;;;;5015413;28;20188;-68
2023/10/16 09:56:40;;;;;;;75.40;48.70;;;;;;;;;;5015630;28;20168;-68
2023/10/16 09:59:12;;;;;;;70.80;44.73;;;;;;;;;;5015907;28;20179;-68
2023/10/16 10:01:45;;;;;;;50.60;35.60;;;;;;;;;;5013908;28;20666;-68
2023/10/16 10:04:12;;;;;;;59.43;41.60;;;;;;;;;;5014804;28;20245;-68
2023/10/16 10:06:42;;;;;;;66.90;43.17;;;;;;;;;;5014015;28;20184;-67
2023/10/16 10:12:14;;;;;;;34.87;27.23;;;;;;;;;;5015477;28;20202;-68
2023/10/16 10:14:48;;;;;;;37.13;26.27;;;;;;;;;;5015367;28;20699;-67
2023/10/16 10:17:25;;;;;;;36.27;24.30;;;;;;;;;;5015366;28;20686;-68
2023/10/16 10:19:56;;;;;;;32.33;22.70;;;;;;;;;;5013428;28;20191;-69
2023/10/16 10:22:28;;;;;;;30.37;22.33;;;;;;;;;;5015188;28;20179;-68
2023/10/16 10:25:22;;;;;;;29.90;23.33;;;;;;;;;;5033070;23;20251;-72
2023/10/16 10:27:48;;;;;;;29.37;21.33;;;;;;;;;;5014606;28;20203;-73
2023/10/16 10:30:18;;;;;;;28.83;21.33;;;;;;;;;;5014605;28;20231;-72
2023/10/16 10:32:45;;;;;;;31.33;19.17;;;;;;;;;;5014588;28;20290;-73
2023/10/16 10:35:28;;;;;;;25.70;19.73;;;;;;;;;;5014334;28;20282;-73
2023/10/16 10:38:07;;;;;;;29.00;19.97;;;;;;;;;;5016239;28;20167;-72
2023/10/16 10:40:33;;;;;;;22.43;17.20;;;;;;;;;;5015664;28;20183;-72
2023/10/16 10:43:02;;;;;;;29.13;19.27;;;;;;;;;;5015940;28;20183;-73
2023/10/16 10:45:34;;;;;;;20.20;15.80;;;;;;;;;;5013675;28;20199;-73
2023/10/16 10:48:06;;;;;;;20.40;16.43;;;;;;;;;;5015301;28;20279;-73
2023/10/16 10:50:33;;;;;;;22.00;15.83;;;;;;;;;;5013646;28;20216;-72
2023/10/16 10:53:03;;;;;;;18.63;15.13;;;;;;;;;;5013767;28;20202;-73
2023/10/16 10:55:29;;;;;;;20.20;14.63;;;;;;;;;;5015151;28;20686;-73
2023/10/16 10:58:11;;;;;;;18.97;14.53;;;;;;;;;;5014907;28;20531;-73
2023/10/16 11:00:43;;;;;;;27.37;16.30;;;;;;;;;;5015534;28;20290;-73
2023/10/16 11:03:22;;;;;;;21.50;15.07;;;;;;;;;;5015122;28;20168;-73
2023/10/16 11:05:49;;;;;;;20.53;14.73;;;;;;;;;;5013534;28;20219;-73
2023/10/16 11:10:42;;;;;;;21.63;13.43;;;;;;;;;;5014818;28;20180;-73
2023/10/16 11:13:09;;;;;;;20.33;16.47;;;;;;;;;;5013481;28;20191;-73
2023/10/16 11:15:35;;;;;;;22.80;16.50;;;;;;;;;;5013218;28;20208;-73
2023/10/16 11:18:11;;;;;;;21.33;15.27;;;;;;;;;;5014496;28;20179;-73
2023/10/16 11:20:38;;;;;;;24.80;15.53;;;;;;;;;;5014367;28;20211;-73
2023/10/16 11:23:13;;;;;;;20.80;14.63;;;;;;;;;;5014663;28;20211;-73
2023/10/16 11:25:44;;;;;;;18.30;14.20;;;;;;;;;;5012962;28;20211;-73
2023/10/16 11:28:11;;;;;;;24.20;13.60;;;;;;;;;;5014898;28;20187;-73
2023/10/16 11:30:39;;;;;;;21.77;14.73;;;;;;;;;;5014156;28;20712;-73
2023/10/16 11:33:09;;;;;;;28.20;23.27;;;;;;;;;;5014320;28;20708;-72
2023/10/16 11:35:35;;;;;;;36.27;26.53;;;;;;;;;;5014070;28;20203;-73
2023/10/16 11:38:13;;;;;;;23.00;16.30;;;;;;;;;;5013340;28;20669;-73
2023/10/16 11:40:39;;;;;;;21.00;13.57;;;;;;;;;;5014157;28;20716;-72
2023/10/16 11:43:12;;;;;;;19.83;13.57;;;;;;;;;;5014009;28;20207;-72
2023/10/16 11:45:38;;;;;;;17.37;12.53;;;;;;;;;;5012874;28;20238;-72
2023/10/16 11:50:50;;;;;;;19.00;13.27;;;;;;;;;;5014644;28;20581;-72
2023/10/16 11:53:20;;;;;;;22.27;16.02;;;;;;;;;;5013429;28;20377;-72
2023/10/16 11:55:49;;;;;;;21.52;15.13;;;;;;;;;;5012757;28;20851;-72
2023/10/16 11:58:16;;;;;;;17.33;12.93;;;;;;;;;;5011495;28;20380;-72
2023/10/16 12:00:49;;;;;;;14.73;11.05;;;;;;;;;;5011271;28;20400;-72
2023/10/16 12:03:15;;;;;;;14.85;10.73;;;;;;;;;;5012872;28;20814;-72
2023/10/16 12:05:42;;;;;;;11.32;8.68;;;;;;;;;;5012357;28;20479;-72
2023/10/16 12:08:08;;;;;;;12.10;8.85;;;;;;;;;;5012257;28;20444;-72
2023/10/16 12:10:35;;;;;;;14.38;9.52;;;;;;;;;;5012473;28;20436;-72
2023/10/16 12:13:02;;;;;;;13.82;10.18;;;;;;;;;;5010968;28;20757;-72
2023/10/16 12:15:28;;;;;;;13.10;9.63;;;;;;;;;;5012208;28;20377;-72
2023/10/16 12:17:55;;;;;;;13.52;10.15;;;;;;;;;;5012398;28;20425;-72
2023/10/16 12:20:26;;;;;;;14.25;10.00;;;;;;;;;;5011282;28;20913;-72
2023/10/16 12:22:52;;;;;;;16.95;9.70;;;;;;;;;;5013074;28;20395;-71
2023/10/16 12:25:18;;;;;;;14.07;8.98;;;;;;;;;;5012231;28;20759;-72
2023/10/16 12:27:47;;;;;;;10.27;8.20;;;;;;;;;;5012819;28;20218;-72
2023/10/16 12:30:13;;;;;;;10.93;7.90;;;;;;;;;;5011981;28;20203;-72
2023/10/16 12:32:39;;;;;;;10.77;7.75;;;;;;;;;;5012063;28;20962;-71
2023/10/16 12:35:09;;;;;;;13.85;7.78;;;;;;;;;;5010552;28;20464;-71
2023/10/16 12:37:36;;;;;;;10.07;7.90;;;;;;;;;;5011794;28;20471;-71
2023/10/16 12:43:06;;;;;;;10.70;6.88;;;;;;;;;;4970813;28;20439;-71
2023/10/16 12:45:33;;;;;;;12.05;6.80;;;;;;;;;;4970939;28;20396;-71
2023/10/16 12:47:59;;;;;;;12.13;6.78;;;;;;;;;;4979631;28;20433;-71
2023/10/16 12:50:27;;;;;;;10.75;7.28;;;;;;;;;;5010911;28;20431;-72
2023/10/16 12:52:56;;;;;;;11.85;7.20;;;;;;;;;;5012001;28;20503;-71
2023/10/16 12:55:23;;;;;;;10.70;7.28;;;;;;;;;;5011783;28;20380;-71
2023/10/16 12:57:53;;;;;;;14.55;6.68;;;;;;;;;;5010648;28;20452;-72
2023/10/16 13:00:21;;;;;;;11.55;7.28;;;;;;;;;;5010713;28;20767;-71
2023/10/16 13:02:51;;;;;;;8.43;6.25;;;;;;;;;;5011848;28;20866;-72
2023/10/16 13:05:24;;;;;;;11.02;6.85;;;;;;;;;;5010461;28;20851;-71
2023/10/16 13:07:50;;;;;;;10.30;7.32;;;;;;;;;;5011984;28;20412;-72
2023/10/16 13:10:20;;;;;;;12.18;7.68;;;;;;;;;;5010505;28;20426;-72
2023/10/16 13:12:47;;;;;;;10.45;7.53;;;;;;;;;;5010576;28;20384;-72
2023/10/16 13:15:16;;;;;;;9.98;6.80;;;;;;;;;;5011955;28;20404;-72
2023/10/16 13:17:48;;;;;;;9.65;6.55;;;;;;;;;;5011794;28;20465;-72
2023/10/16 13:20:17;;;;;;;9.70;6.45;;;;;;;;;;5011560;28;20377;-72
2023/10/16 13:22:52;;;;;;;10.73;6.63;;;;;;;;;;5011658;28;20412;-70
2023/10/16 13:25:22;;;;;;;11.85;7.28;;;;;;;;;;5010063;28;20420;-71
2023/10/16 13:27:48;;;;;;;9.98;6.68;;;;;;;;;;5009980;28;20404;-71
2023/10/16 13:30:16;;;;;;;9.65;5.47;;;;;;;;;;5012601;28;20724;-71
2023/10/16 13:32:46;;;;;;;9.25;5.57;;;;;;;;;;5015298;28;20883;-71
2023/10/16 13:35:12;;;;;;;11.85;5.43;;;;;;;;;;5014883;28;20392;-71
2023/10/16 13:37:42;;;;;;;6.50;4.97;;;;;;;;;;5013623;28;20392;-71
2023/10/16 13:40:20;;;;;;;8.57;5.17;;;;;;;;;;5015170;28;20956;-71
2023/10/16 13:42:46;;;;;;;7.82;5.50;;;;;;;;;;5015259;28;20867;-71
2023/10/16 13:45:13;;;;;;;8.32;5.55;;;;;;;;;;5013459;28;20755;-71
2023/10/16 13:47:43;;;;;;;9.38;6.25;;;;;;;;;;5013330;28;20405;-71
2023/10/16 13:50:24;;;;;;;9.05;6.30;;;;;;;;;;5014658;28;20373;-71
2023/10/16 13:52:50;;;;;;;8.98;6.07;;;;;;;;;;5014240;28;20408;-72
2023/10/16 13:55:20;;;;;;;11.65;6.68;;;;;;;;;;5013267;28;20381;-71
2023/10/16 13:57:47;;;;;;;8.70;6.30;;;;;;;;;;5014715;28;20384;-72
2023/10/16 14:00:29;;;;;;;11.25;6.68;;;;;;;;;;5013687;28;20388;-71
2023/10/16 14:02:57;;;;;;;10.63;7.47;;;;;;;;;;5013912;28;20392;-70
2023/10/16 14:05:23;;;;;;;9.23;5.78;;;;;;;;;;5013660;28;20385;-71
2023/10/16 14:07:49;;;;;;;10.52;6.80;;;;;;;;;;5013349;28;20439;-71
2023/10/16 14:10:15;;;;;;;10.70;7.20;;;;;;;;;;5014537;28;20392;-70
2023/10/16 14:12:41;;;;;;;10.00;6.87;;;;;;;;;;5013187;28;20817;-71
2023/10/16 14:15:15;;;;;;;8.50;6.10;;;;;;;;;;5012963;28;20466;-71
2023/10/16 14:17:43;;;;;;;10.13;6.88;;;;;;;;;;5013065;28;20383;-71
2023/10/16 14:20:12;;;;;;;10.88;6.80;;;;;;;;;;5012940;28;20389;-71
2023/10/16 14:22:47;;;;;;;9.90;6.80;;;;;;;;;;5014099;28;20377;-71
2023/10/16 14:25:13;;;;;;;10.47;6.53;;;;;;;;;;5014041;28;20442;-71
2023/10/16 14:27:39;;;;;;;13.27;6.80;;;;;;;;;;5012851;28;20906;-71
2023/10/16 14:30:08;;;;;;;11.98;6.43;;;;;;;;;;5014057;28;20373;-71
2023/10/16 14:32:35;;;;;;;14.13;7.10;;;;;;;;;;5012589;28;20393;-71
2023/10/16 14:35:00;;;;;;;8.80;5.80;;;;;;;;;;5012466;28;20381;-70
2023/10/16 14:37:27;;;;;;;7.35;5.68;;;;;;;;;;5013868;28;20392;-70
2023/10/16 14:39:56;;;;;;;10.43;5.82;;;;;;;;;;5012633;28;20442;-70
2023/10/16 14:42:23;;;;;;;9.82;6.00;;;;;;;;;;5012501;28;20385;-71
2023/10/16 14:44:49;;;;;;;10.55;6.32;;;;;;;;;;5013691;28;20835;-70
2023/10/16 14:47:15;;;;;;;11.35;6.13;;;;;;;;;;5013650;28;20412;-70
2023/10/16 14:49:41;;;;;;;9.77;6.13;;;;;;;;;;5012784;28;20396;-70
2023/10/16 14:52:08;;;;;;;11.60;7.68;;;;;;;;;;5013679;28;20373;-70
2023/10/16 14:54:35;;;;;;;10.02;7.13;;;;;;;;;;5013764;28;21095;-70
2023/10/16 14:57:01;;;;;;;11.85;7.07;;;;;;;;;;5013854;28;20800;-73
2023/10/16 14:59:27;;;;;;;10.90;7.07;;;;;;;;;;5014311;28;20871;-73
2023/10/16 15:01:54;;;;;;;10.27;7.03;;;;;;;;;;5013504;28;20396;-73
2023/10/16 15:04:20;;;;;;;8.43;5.30;;;;;;;;;;5014989;28;20377;-73
2023/10/16 15:06:46;;;;;;;7.75;4.35;;;;;;;;;;5013385;28;20412;-73
2023/10/16 15:09:18;;;;;;;7.63;3.70;;;;;;;;;;5014745;28;20381;-72
2023/10/16 15:11:45;;;;;;;5.13;3.33;;;;;;;;;;5015256;28;20444;-72
2023/10/16 15:14:12;;;;;;;6.50;3.45;;;;;;;;;;5013271;28;20914;-73
2023/10/16 15:16:38;;;;;;;5.32;3.60;;;;;;;;;;5013962;28;20409;-70
2023/10/16 15:19:07;;;;;;;7.55;3.63;;;;;;;;;;5013369;28;20780;-70
2023/10/16 15:21:33;;;;;;;8.25;4.75;;;;;;;;;;5013228;28;20458;-70
2023/10/16 15:23:59;;;;;;;8.15;4.90;;;;;;;;;;5011745;28;20485;-70
2023/10/16 15:26:25;;;;;;;8.83;4.90;;;;;;;;;;5013242;28;20476;-70
2023/10/16 15:28:52;;;;;;;9.85;5.28;;;;;;;;;;5012751;28;20401;-70
2023/10/16 15:31:19;;;;;;;10.65;5.13;;;;;;;;;;5012917;28;20377;-70
2023/10/16 15:33:45;;;;;;;7.85;5.00;;;;;;;;;;5012805;28;20388;-71
2023/10/16 15:36:12;;;;;;;8.77;5.37;;;;;;;;;;5013090;28;20479;-72
2023/10/16 15:38:38;;;;;;;10.63;5.30;;;;;;;;;;5013125;28;20388;-70
2023/10/16 15:41:08;;;;;;;8.00;5.15;;;;;;;;;;5013053;28;20816;-70
2023/10/16 15:43:35;;;;;;;9.77;5.00;;;;;;;;;;5013004;28;20738;-71
2023/10/16 15:46:02;;;;;;;8.82;6.18;;;;;;;;;;5012654;28;20389;-71
2023/10/16 15:48:29;;;;;;;11.15;5.18;;;;;;;;;;5013038;28;20436;-70
2023/10/16 15:50:55;;;;;;;16.05;11.00;;;;;;;;;;5011206;28;20459;-70
2023/10/16 15:53:21;;;;;;;24.90;17.67;;;;;;;;;;5012322;28;20388;-70
2023/10/16 15:55:48;;;;;;;15.47;9.17;;;;;;;;;;5011033;28;20481;-70
2023/10/16 15:58:15;;;;;;;15.80;10.05;;;;;;;;;;5012404;28;20945;-70
2023/10/16 16:00:44;;;;;;;9.18;6.55;;;;;;;;;;5011127;28;20393;-70
2023/10/16 16:03:11;;;;;;;9.80;5.00;;;;;;;;;;5012265;28;20385;-70
2023/10/16 16:05:37;;;;;;;13.02;5.30;;;;;;;;;;5012119;28;20380;-70
2023/10/16 16:08:04;;;;;;;16.65;11.25;;;;;;;;;;5012105;28;20412;-70
2023/10/16 16:10:34;;;;;;;16.27;12.43;;;;;;;;;;5012152;28;20376;-70
2023/10/16 16:13:01;;;;;;;27.42;23.77;;;;;;;;;;5012071;28;20435;-70
2023/10/16 16:15:28;;;;;;;39.57;32.60;;;;;;;;;;5012156;28;20385;-70
2023/10/16 16:17:54;;;;;;;16.73;13.63;;;;;;;;;;5010839;28;20385;-71
2023/10/16 16:20:21;;;;;;;10.88;8.85;;;;;;;;;;5012384;28;20420;-70
2023/10/16 16:22:47;;;;;;;12.88;6.75;;;;;;;;;;5012211;28;20391;-70
2023/10/16 16:25:13;;;;;;;10.23;6.63;;;;;;;;;;5011810;28;20409;-70
2023/10/16 16:27:46;;;;;;;15.98;11.82;;;;;;;;;;5012391;28;20409;-70
2023/10/16 16:30:19;;;;;;;16.23;11.43;;;;;;;;;;5012112;28;20836;-70
2023/10/16 16:32:45;;;;;;;13.75;9.52;;;;;;;;;;5010738;28;20393;-70
2023/10/16 16:35:15;;;;;;;17.13;14.32;;;;;;;;;;5011885;28;20388;-70